createdAt,value
2019-06-15T00:02:52.758Z,24.98
2019-06-15T00:07:56.605Z,24.98
2019-06-15T00:13:00.433Z,25.13
2019-06-15T00:18:04.360Z,25.13
2019-06-15T00:23:08.176Z,24.99
2019-06-15T00:28:12.100Z,25.20
2019-06-15T00:33:16.307Z,25.01
2019-06-15T00:38:20.137Z,25.20
2019-06-15T00:43:23.963Z,25.28
2019-06-15T00:48:27.899Z,25.11
2019-06-15T00:53:31.798Z,25.07
2019-06-15T00:58:35.670Z,25.01
2019-06-15T01:03:40.024Z,25.01
2019-06-15T01:08:43.998Z,25.25
2019-06-15T01:13:47.892Z,25.27
2019-06-15T01:18:51.699Z,25.27
2019-06-15T01:23:56.662Z,25.32
2019-06-15T01:29:00.474Z,25.42
2019-06-15T01:34:04.523Z,25.42
2019-06-15T01:44:17.685Z,25.35
2019-06-15T01:49:21.544Z,25.50
2019-06-15T01:54:25.335Z,25.41
2019-06-15T01:59:29.612Z,25.36
2019-06-15T02:04:33.423Z,25.36
2019-06-15T02:09:37.204Z,25.15
2019-06-15T02:14:41.042Z,25.36
2019-06-15T02:19:44.805Z,25.45
2019-06-15T02:24:48.535Z,25.44
2019-06-15T02:29:52.483Z,25.52
2019-06-15T02:34:56.342Z,25.48
2019-06-15T02:40:00.194Z,25.48
2019-06-15T02:45:04.185Z,25.48
2019-06-15T02:50:08.049Z,25.45
2019-06-15T02:55:11.874Z,25.46
2019-06-15T03:00:17.396Z,25.47
2019-06-15T03:05:21.218Z,25.41
2019-06-15T03:10:25.145Z,25.41
2019-06-15T03:15:29.020Z,25.43
2019-06-15T03:20:32.741Z,25.43
2019-06-15T03:25:36.539Z,25.44
2019-06-15T03:30:41.162Z,25.44
2019-06-15T03:35:44.968Z,25.42
2019-06-15T03:40:48.852Z,25.42
2019-06-15T03:45:52.736Z,25.41
2019-06-15T03:50:56.607Z,25.43
2019-06-15T03:56:00.518Z,25.40
2019-06-15T04:01:14.370Z,25.40
2019-06-15T04:06:18.186Z,25.42
2019-06-15T04:11:22.124Z,25.41
2019-06-15T04:16:26.080Z,25.37
2019-06-15T04:21:30.027Z,25.37
2019-06-15T04:26:36.310Z,25.46
2019-06-15T04:31:40.170Z,25.45
2019-06-15T04:36:44.062Z,25.45
2019-06-15T04:41:47.975Z,25.38
2019-06-15T04:46:51.841Z,25.38
2019-06-15T04:51:55.787Z,25.46
2019-06-15T04:56:59.664Z,25.47
2019-06-15T05:02:03.489Z,25.46
2019-06-15T05:07:07.347Z,25.46
2019-06-15T05:12:11.211Z,25.49
2019-06-15T05:17:15.011Z,25.52
2019-06-15T05:22:19.108Z,25.51
2019-06-15T05:27:23.302Z,25.50
2019-06-15T05:32:27.154Z,25.52
2019-06-15T05:37:31.148Z,25.52
2019-06-15T05:42:34.970Z,25.52
2019-06-15T05:47:38.952Z,25.53
2019-06-15T05:52:42.846Z,25.53
2019-06-15T05:57:46.758Z,25.55
2019-06-15T06:02:50.647Z,25.55
2019-06-15T06:07:54.599Z,25.57
2019-06-15T06:12:58.370Z,25.33
2019-06-15T06:18:02.245Z,25.40
2019-06-15T06:23:05.995Z,25.50
2019-06-15T06:28:09.854Z,25.59
2019-06-15T06:33:13.842Z,25.59
2019-06-15T06:38:17.677Z,25.66
2019-06-15T06:43:21.604Z,25.70
2019-06-15T06:48:25.489Z,25.70
2019-06-15T06:53:29.482Z,25.71
2019-06-15T06:58:33.482Z,25.67
2019-06-15T07:03:38.656Z,25.64
2019-06-15T07:08:42.655Z,25.78
2019-06-15T07:13:47.142Z,25.78
2019-06-15T07:18:50.888Z,25.88
2019-06-15T07:23:54.635Z,25.90
2019-06-15T07:28:58.357Z,25.89
2019-06-15T07:34:02.074Z,25.89
2019-06-15T07:39:06.580Z,25.89
2019-06-15T07:44:10.984Z,25.86
2019-06-15T07:49:14.981Z,25.85
2019-06-15T07:54:18.663Z,25.85
2019-06-15T07:59:22.514Z,25.89
2019-06-15T08:04:26.461Z,25.99
2019-06-15T08:09:30.145Z,25.99
2019-06-15T08:14:33.877Z,26.03
2019-06-15T08:30:20.832Z,26.00
2019-06-15T08:35:24.826Z,26.00
2019-06-15T08:40:28.545Z,26.03
2019-06-15T08:45:32.757Z,26.02
2019-06-15T08:50:36.494Z,26.02
2019-06-15T08:55:40.222Z,26.00
2019-06-15T09:00:43.960Z,26.00
2019-06-15T09:10:55.233Z,26.03
2019-06-15T09:31:29.565Z,26.07
2019-06-15T09:36:33.274Z,26.06
2019-06-15T09:41:37.130Z,26.13
2019-06-15T09:46:41.359Z,26.14
2019-06-15T09:52:02.760Z,26.14
2019-06-15T09:57:02.193Z,26.15
2019-06-15T10:07:09.327Z,26.19
2019-06-15T10:12:13.205Z,26.19
2019-06-15T10:17:16.953Z,26.19
2019-06-15T10:22:20.665Z,26.34
2019-06-15T10:27:24.372Z,26.23
2019-06-15T10:32:28.160Z,26.29
2019-06-15T10:37:32.216Z,26.29
2019-06-15T10:42:36.132Z,26.26
2019-06-15T10:47:39.872Z,26.38
2019-06-15T10:52:43.660Z,26.41
2019-06-15T10:57:49.618Z,26.41
2019-06-15T11:02:53.353Z,26.39
2019-06-15T11:07:57.130Z,26.34
2019-06-15T11:13:00.898Z,26.34
2019-06-15T11:18:04.662Z,26.34
2019-06-15T11:23:08.362Z,26.41
2019-06-15T11:28:12.905Z,26.47
2019-06-15T11:33:17.094Z,26.35
2019-06-15T11:38:22.030Z,26.35
2019-06-15T11:43:26.165Z,26.35
2019-06-15T11:48:29.879Z,26.33
2019-06-15T11:53:33.861Z,26.31
2019-06-15T11:58:37.645Z,26.29
2019-06-15T12:03:41.350Z,26.29
2019-06-15T12:08:45.403Z,26.30
2019-06-15T12:13:49.110Z,26.29
2019-06-15T12:18:53.605Z,26.28
2019-06-15T12:23:57.337Z,26.26
2019-06-15T12:29:01.049Z,26.27
2019-06-15T12:34:04.779Z,26.31
2019-06-15T12:39:08.489Z,26.32
2019-06-15T12:44:12.195Z,26.35
2019-06-15T12:49:15.911Z,26.38
2019-06-15T12:54:19.697Z,26.39
2019-06-15T12:59:23.476Z,26.42
2019-06-15T13:04:27.230Z,26.42
2019-06-15T13:09:31.022Z,26.44
2019-06-15T13:14:34.796Z,26.46
2019-06-15T13:19:38.498Z,26.38
2019-06-15T13:24:42.238Z,26.48
2019-06-15T13:29:46.078Z,26.48
2019-06-15T13:34:49.818Z,26.50
2019-06-15T13:39:53.510Z,26.51
2019-06-15T13:44:57.357Z,26.51
2019-06-15T13:50:01.129Z,26.57
2019-06-15T13:55:05.531Z,26.59
2019-06-15T14:00:09.482Z,26.64
2019-06-15T14:05:13.386Z,26.64
2019-06-15T14:10:17.267Z,26.63
2019-06-15T14:15:20.978Z,26.60
2019-06-15T14:20:24.806Z,26.57
2019-06-15T14:25:28.526Z,26.50
2019-06-15T14:30:32.497Z,26.58
2019-06-15T14:35:36.359Z,26.58
2019-06-15T14:40:40.175Z,26.58
2019-06-15T14:45:58.402Z,26.58
2019-06-15T14:50:49.343Z,26.60
2019-06-15T14:55:53.186Z,26.51
2019-06-15T15:00:57.248Z,26.51
2019-06-15T15:06:01.109Z,26.59
2019-06-15T15:11:06.613Z,26.59
2019-06-15T15:16:10.530Z,26.68
2019-06-15T15:21:16.574Z,26.72
2019-06-15T15:26:19.862Z,26.72
2019-06-15T15:31:23.618Z,26.71
2019-06-15T15:36:27.338Z,26.70
2019-06-15T15:41:31.095Z,26.70
2019-06-15T15:46:34.806Z,26.67
2019-06-15T15:51:38.582Z,26.88
2019-06-15T15:56:42.582Z,26.77
2019-06-15T16:01:46.574Z,26.77
2019-06-15T16:06:50.485Z,26.78
2019-06-15T16:11:56.503Z,26.68
2019-06-15T16:16:59.396Z,26.73
2019-06-15T16:22:03.364Z,26.69
2019-06-15T16:27:07.307Z,26.77
2019-06-15T16:32:11.065Z,26.77
2019-06-15T16:37:16.882Z,26.84
2019-06-15T16:42:20.333Z,26.90
2019-06-15T16:47:24.076Z,26.94
2019-06-15T16:52:27.910Z,26.99
2019-06-15T16:57:31.623Z,26.99
2019-06-15T17:02:36.825Z,27.02
2019-06-15T17:07:40.845Z,27.10
2019-06-15T17:12:47.383Z,27.10
2019-06-15T17:17:50.074Z,26.83
2019-06-15T17:22:56.231Z,26.83
2019-06-15T17:27:59.249Z,26.78
2019-06-15T17:33:05.075Z,26.74
2019-06-15T17:38:08.451Z,26.72
2019-06-15T17:43:12.146Z,26.69
2019-06-15T17:48:17.443Z,26.69
2019-06-15T17:53:21.516Z,26.70
2019-06-15T17:58:26.203Z,26.68
2019-06-15T18:03:30.200Z,26.76
2019-06-15T18:08:34.055Z,26.76
2019-06-15T18:13:37.804Z,26.77
2019-06-15T18:18:41.587Z,26.79
2019-06-15T18:23:46.440Z,26.75
2019-06-15T18:28:50.353Z,26.75
2019-06-15T18:34:06.601Z,26.75
2019-06-15T18:38:59.585Z,26.75
2019-06-15T18:44:03.388Z,26.70
2019-06-15T18:49:07.100Z,26.70
2019-06-15T18:54:10.828Z,26.66
2019-06-15T18:59:16.654Z,26.66
2019-06-15T19:04:27.123Z,26.73
2019-06-15T19:09:26.721Z,26.73
2019-06-15T19:14:30.956Z,26.67
2019-06-15T19:19:37.547Z,26.67
2019-06-15T19:24:40.144Z,26.70
2019-06-15T19:29:46.395Z,26.70
2019-06-15T19:34:51.209Z,26.66
2019-06-15T19:39:56.518Z,26.64
2019-06-15T19:45:00.442Z,26.64
2019-06-15T19:50:06.661Z,26.62
2019-06-15T19:55:11.290Z,26.62
2019-06-15T20:00:17.102Z,26.62
2019-06-15T20:05:21.037Z,26.62
2019-06-15T20:10:26.657Z,26.62
2019-06-15T20:15:30.483Z,26.62
2019-06-15T20:20:36.954Z,26.62
2019-06-15T20:25:39.727Z,26.63
2019-06-15T20:30:46.044Z,26.63
2019-06-15T20:35:49.014Z,26.68
2019-06-15T20:40:53.321Z,26.16
2019-06-15T20:45:57.265Z,26.02
2019-06-15T20:51:02.067Z,26.02
2019-06-15T20:56:06.712Z,25.43
2019-06-15T21:01:11.153Z,25.43
2019-06-15T21:06:16.842Z,25.31
2019-06-15T21:11:21.506Z,25.51
2019-06-15T21:16:26.210Z,25.32
2019-06-15T21:21:30.186Z,25.32
2019-06-15T21:26:34.187Z,25.45
2019-06-15T21:31:37.984Z,25.41
2019-06-15T21:36:41.702Z,25.25
2019-06-15T21:41:46.286Z,25.24
2019-06-15T21:46:50.112Z,25.28
2019-06-15T21:51:56.290Z,25.26
2019-06-15T21:56:59.407Z,25.26
2019-06-15T22:02:03.150Z,25.05
2019-06-15T22:07:06.876Z,24.93
2019-06-15T22:12:10.622Z,24.98
2019-06-15T22:17:16.745Z,24.98
2019-06-15T22:22:19.821Z,24.91
2019-06-15T22:27:23.525Z,24.79
2019-06-15T22:32:27.299Z,24.84
2019-06-15T22:37:31.016Z,24.85
2019-06-15T22:42:36.243Z,24.89
2019-06-15T22:47:40.106Z,24.83
2019-06-15T22:52:43.897Z,24.82
2019-06-15T22:57:47.642Z,24.82
2019-06-15T23:02:51.360Z,24.85
2019-06-15T23:07:55.972Z,25.00
2019-06-15T23:12:59.926Z,24.95
2019-06-15T23:18:06.566Z,24.95
2019-06-15T23:23:09.501Z,25.04
2019-06-15T23:28:13.536Z,25.04
2019-06-15T23:33:17.466Z,24.91
2019-06-15T23:38:21.271Z,24.82
2019-06-15T23:43:26.896Z,24.82
2019-06-15T23:48:30.437Z,24.67
2019-06-15T23:53:36.589Z,24.59
2019-06-15T23:58:40.863Z,24.61
